Time;durP1;ratioP1;P1;durP2;ratioP2;P2;SDS_P1;SDS_P2;PMS_P1;PMS_P2;Temp;Humidity;BMP_temperature;BMP_pressure;BME280_temperature;BME280_humidity;BME280_pressure;Samples;Min_cycle;Max_cycle;Signal;HPM_P1;HPM_P2
2023/03/21 00:02:28;;;;;;;4.10;2.30;;;9.60;98.00;;;;;;5073096;28;20462;-66
2023/03/21 00:04:55;;;;;;;3.73;2.43;;;9.60;98.00;;;;;;5072979;28;20460;-66
2023/03/21 00:07:22;;;;;;;11.23;3.03;;;9.60;98.00;;;;;;5071946;28;20468;-66
2023/03/21 00:09:51;;;;;;;3.00;2.10;;;9.70;98.00;;;;;;5072963;28;20486;-66
2023/03/21 00:12:19;;;;;;;4.80;2.47;;;9.50;98.00;;;;;;5072939;28;20800;-66
2023/03/21 00:14:46;;;;;;;5.93;2.50;;;9.50;98.00;;;;;;5072924;28;20544;-66
2023/03/21 00:17:14;;;;;;;3.23;1.97;;;9.50;98.00;;;;;;5072515;28;20466;-66
2023/03/21 00:19:43;;;;;;;3.13;2.23;;;9.50;98.00;;;;;;5072739;28;20588;-66
2023/03/21 00:22:10;;;;;;;2.47;2.30;;;9.60;98.00;;;;;;5072757;28;20455;-66
2023/03/21 00:24:39;;;;;;;4.40;2.50;;;9.60;98.00;;;;;;5072706;28;20465;-66
2023/03/21 00:27:07;;;;;;;3.27;2.30;;;9.50;98.00;;;;;;5072561;28;20944;-66
2023/03/21 00:29:34;;;;;;;5.53;2.40;;;9.40;98.00;;;;;;5072734;28;20459;-66
2023/03/21 00:32:01;;;;;;;4.80;2.23;;;9.30;98.00;;;;;;5072703;28;20462;-65
2023/03/21 00:34:29;;;;;;;2.80;2.00;;;9.30;98.00;;;;;;5072684;28;20840;-65
2023/03/21 00:36:56;;;;;;;5.00;2.43;;;9.30;98.00;;;;;;5072547;28;20458;-66
2023/03/21 00:39:23;;;;;;;3.20;2.27;;;9.40;98.00;;;;;;5070885;28;20461;-66
2023/03/21 00:41:50;;;;;;;7.97;2.57;;;9.40;98.00;;;;;;5072790;28;20453;-66
2023/03/21 00:44:19;;;;;;;6.90;3.00;;;9.40;98.00;;;;;;5072375;28;20461;-66
2023/03/21 00:46:47;;;;;;;3.07;2.30;;;9.50;98.00;;;;;;5072432;28;20459;-66
2023/03/21 00:49:14;;;;;;;4.83;2.80;;;9.40;98.00;;;;;;5072542;28;20464;-66
2023/03/21 00:51:42;;;;;;;4.10;2.60;;;9.40;98.00;;;;;;5072597;28;20457;-66
2023/03/21 00:56:37;;;;;;;3.70;2.77;;;9.40;98.00;;;;;;5030241;28;20465;-66
2023/03/21 00:59:05;;;;;;;2.87;2.07;;;9.40;98.00;;;;;;5032225;28;20937;-66
2023/03/21 01:01:34;;;;;;;6.00;2.93;;;9.50;98.00;;;;;;5047501;28;20494;-66
2023/03/21 01:04:04;;;;;;;4.60;2.10;;;9.40;98.00;;;;;;5032006;28;20846;-66
2023/03/21 01:06:32;;;;;;;12.70;2.67;;;9.40;98.00;;;;;;5032095;28;20459;-66
2023/03/21 01:08:59;;;;;;;4.30;2.57;;;9.30;98.00;;;;;;5031864;28;20465;-66
2023/03/21 01:11:28;;;;;;;6.00;2.10;;;9.20;98.00;;;;;;5032078;28;20818;-66
2023/03/21 01:13:55;;;;;;;3.77;2.43;;;9.20;98.00;;;;;;5032132;28;20462;-66
2023/03/21 01:16:23;;;;;;;5.63;2.63;;;9.10;98.00;;;;;;5031709;28;20513;-66
2023/03/21 01:18:51;;;;;;;3.20;2.47;;;9.10;98.00;;;;;;5031815;28;20457;-66
2023/03/21 01:21:18;;;;;;;3.10;2.30;;;9.20;98.00;;;;;;5031657;28;20564;-66
2023/03/21 01:23:48;;;;;;;6.50;2.80;;;9.30;98.00;;;;;;5031726;28;20991;-66
2023/03/21 01:26:15;;;;;;;2.80;2.17;;;9.40;98.00;;;;;;5013893;28;20481;-66
2023/03/21 01:28:43;;;;;;;4.30;2.40;;;9.50;98.00;;;;;;5031054;28;20469;-66
2023/03/21 01:31:12;;;;;;;2.73;2.20;;;9.40;98.00;;;;;;5031530;28;20459;-66
2023/03/21 01:33:39;;;;;;;3.03;2.33;;;9.40;98.00;;;;;;5031693;28;20453;-66
2023/03/21 01:36:09;;;;;;;5.60;2.57;;;9.50;98.00;;;;;;5031134;28;20844;-66
2023/03/21 01:38:37;;;;;;;6.27;3.13;;;9.40;98.00;;;;;;5031529;28;20465;-66
2023/03/21 01:41:05;;;;;;;3.70;2.20;;;9.20;98.00;;;;;;5031364;28;21146;-66
2023/03/21 01:43:33;;;;;;;4.83;2.67;;;9.20;98.00;;;;;;5031504;28;20493;-66
2023/03/21 01:46:38;;;;;;;3.90;2.27;;;9.20;98.00;;;;;;5031343;28;20465;-66
2023/03/21 01:49:09;;;;;;;4.00;2.40;;;9.10;98.00;;;;;;5031365;28;20485;-66
2023/03/21 01:51:42;;;;;;;3.60;2.00;;;9.10;98.00;;;;;;5046792;28;20869;-66
2023/03/21 01:54:13;;;;;;;5.60;2.37;;;9.00;98.00;;;;;;5031458;28;20808;-65
2023/03/21 01:56:45;;;;;;;3.67;2.50;;;9.00;98.00;;;;;;5031381;28;20949;-66
2023/03/21 01:59:20;;;;;;;3.13;1.80;;;9.10;98.00;;;;;;5031206;28;20476;-66
2023/03/21 02:01:48;;;;;;;4.60;2.73;;;9.10;98.00;;;;;;5031145;28;20489;-66
2023/03/21 02:04:20;;;;;;;6.37;3.03;;;9.10;98.00;;;;;;5031021;28;20474;-66
2023/03/21 02:06:52;;;;;;;4.40;2.30;;;9.10;98.00;;;;;;5031234;28;20467;-66
2023/03/21 02:09:23;;;;;;;3.50;2.20;;;9.10;98.00;;;;;;5030918;28;20471;-66
2023/03/21 02:11:51;;;;;;;3.60;2.63;;;9.10;98.00;;;;;;5031095;28;20458;-66
2023/03/21 02:14:19;;;;;;;3.70;2.30;;;9.00;98.00;;;;;;5030924;28;20466;-66
2023/03/21 02:17:01;;;;;;;3.70;2.50;;;9.00;98.00;;;;;;5030971;28;20537;-66
2023/03/21 02:20:07;;;;;;;5.70;2.30;;;9.00;98.00;;;;;;5031062;28;20494;-66
2023/03/21 02:23:25;;;;;;;3.07;2.40;;;9.00;98.00;;;;;;5031307;28;20450;-66
2023/03/21 02:26:34;;;;;;;2.50;2.20;;;8.90;98.00;;;;;;4964943;28;20473;-66
2023/03/21 02:29:33;;;;;;;6.47;2.33;;;8.90;98.00;;;;;;5020490;28;20819;-66
2023/03/21 02:32:08;;;;;;;2.40;2.00;;;9.00;98.00;;;;;;5030939;28;20956;-66
2023/03/21 02:35:00;;;;;;;3.77;2.27;;;9.20;98.00;;;;;;5030840;28;20535;-66
2023/03/21 02:37:34;;;;;;;4.37;2.80;;;9.40;98.00;;;;;;5029784;28;20451;-66
2023/03/21 02:40:11;;;;;;;3.47;2.30;;;9.40;98.00;;;;;;5031438;28;20458;-66
2023/03/21 02:42:49;;;;;;;2.17;1.70;;;9.40;98.00;;;;;;5034930;28;20461;-66
2023/03/21 02:45:19;;;;;;;2.83;2.23;;;9.30;98.00;;;;;;5034921;28;20462;-66
2023/03/21 02:47:51;;;;;;;4.00;2.10;;;9.30;98.00;;;;;;5034835;28;20462;-66
2023/03/21 02:50:24;;;;;;;3.00;2.30;;;9.30;98.00;;;;;;5034770;28;20827;-66
2023/03/21 02:52:54;;;;;;;4.17;2.27;;;9.40;98.00;;;;;;5034866;28;20461;-66
2023/03/21 02:55:24;;;;;;;8.80;2.10;;;9.40;98.00;;;;;;5034273;28;20705;-66
2023/03/21 02:57:57;;;;;;;4.43;2.53;;;9.40;98.00;;;;;;5034619;28;20459;-66
2023/03/21 03:00:27;;;;;;;4.50;2.70;;;9.40;98.00;;;;;;5016517;28;20483;-66
2023/03/21 03:02:55;;;;;;;3.83;2.27;;;9.40;98.00;;;;;;5034381;28;20941;-66
2023/03/21 03:05:25;;;;;;;15.73;2.57;;;9.40;98.00;;;;;;5016968;28;21007;-66
2023/03/21 03:08:15;;;;;;;4.93;2.30;;;9.40;98.00;;;;;;5034028;28;20462;-66
2023/03/21 03:10:53;;;;;;;3.93;2.53;;;9.40;98.00;;;;;;5033768;28;20549;-66
2023/03/21 03:13:31;;;;;;;5.70;2.70;;;9.40;98.00;;;;;;5034469;28;20456;-66
2023/03/21 03:16:08;;;;;;;2.93;2.17;;;9.40;98.00;;;;;;5034059;28;20494;-66
2023/03/21 03:18:42;;;;;;;3.50;2.30;;;9.50;98.00;;;;;;5034094;28;20486;-66
2023/03/21 03:21:17;;;;;;;3.63;2.27;;;9.40;98.00;;;;;;5033892;28;20489;-66
2023/03/21 03:23:49;;;;;;;5.83;2.70;;;9.40;98.00;;;;;;5017286;28;20458;-66
2023/03/21 03:26:20;;;;;;;4.07;2.73;;;9.40;98.00;;;;;;5033940;28;20466;-66
2023/03/21 03:28:51;;;;;;;12.23;2.47;;;9.40;98.00;;;;;;5033877;28;20462;-66
2023/03/21 03:31:26;;;;;;;2.70;2.10;;;9.40;98.00;;;;;;5033839;28;20937;-66
2023/03/21 03:33:56;;;;;;;3.10;2.27;;;9.30;98.00;;;;;;5033924;28;20458;-66
2023/03/21 03:36:27;;;;;;;3.67;2.53;;;9.30;98.00;;;;;;5033845;28;20514;-66
2023/03/21 03:38:57;;;;;;;3.30;1.73;;;9.30;98.00;;;;;;5033683;28;20494;-66
2023/03/21 03:41:27;;;;;;;4.33;2.43;;;9.30;98.00;;;;;;5033595;28;20568;-66
2023/03/21 03:43:57;;;;;;;3.90;2.63;;;9.30;98.00;;;;;;5033706;28;20458;-66
2023/03/21 03:46:30;;;;;;;4.63;2.60;;;9.30;98.00;;;;;;4999604;28;20805;-66
2023/03/21 03:49:02;;;;;;;2.90;2.00;;;9.20;98.00;;;;;;5033637;28;20491;-66
2023/03/21 03:51:35;;;;;;;4.40;2.40;;;9.20;98.00;;;;;;5014884;28;20478;-66
2023/03/21 03:54:08;;;;;;;3.07;2.00;;;9.20;98.00;;;;;;5033667;28;20827;-66
2023/03/21 03:56:36;;;;;;;4.50;2.50;;;9.30;98.00;;;;;;5033311;28;20491;-66
2023/03/21 03:59:06;;;;;;;5.50;2.60;;;9.20;98.00;;;;;;5033399;28;20461;-66
2023/03/21 04:01:33;;;;;;;7.07;2.50;;;9.20;98.00;;;;;;5033219;28;20485;-66
2023/03/21 04:04:01;;;;;;;5.73;2.40;;;9.20;98.00;;;;;;5033100;28;20466;-66
2023/03/21 04:06:28;;;;;;;2.30;2.10;;;9.10;98.00;;;;;;5033232;28;20458;-66
2023/03/21 04:08:55;;;;;;;4.00;2.30;;;9.20;98.00;;;;;;5033085;28;20553;-66
2023/03/21 04:11:24;;;;;;;3.73;2.60;;;9.20;98.00;;;;;;5033244;28;20469;-66
2023/03/21 04:13:51;;;;;;;4.10;2.47;;;9.20;98.00;;;;;;5033053;28;20977;-66
2023/03/21 04:16:19;;;;;;;5.07;2.17;;;9.20;98.00;;;;;;5032877;28;20890;-66
2023/03/21 04:18:47;;;;;;;3.13;2.17;;;9.20;98.00;;;;;;5032548;28;20992;-66
2023/03/21 04:21:14;;;;;;;3.17;2.37;;;9.20;98.00;;;;;;5032694;28;21011;-66
2023/03/21 04:23:42;;;;;;;3.87;2.47;;;9.20;98.00;;;;;;5032919;28;20539;-66
2023/03/21 04:26:10;;;;;;;2.57;2.03;;;9.20;98.00;;;;;;5033025;28;20454;-66
2023/03/21 04:28:40;;;;;;;4.57;2.80;;;9.30;98.00;;;;;;5032764;28;20463;-66
2023/03/21 04:31:09;;;;;;;3.20;2.40;;;9.20;98.00;;;;;;5032619;28;20452;-66
2023/03/21 04:33:39;;;;;;;3.00;2.10;;;9.10;98.00;;;;;;5032698;28;20557;-66
2023/03/21 04:36:17;;;;;;;4.30;2.20;;;9.10;98.00;;;;;;5032448;28;20454;-66
2023/03/21 04:38:47;;;;;;;5.37;2.20;;;8.90;98.00;;;;;;5032677;28;20452;-66
2023/03/21 04:41:14;;;;;;;2.87;1.93;;;8.90;98.00;;;;;;5032525;28;20490;-66
2023/03/21 04:43:43;;;;;;;4.27;2.00;;;8.90;98.00;;;;;;5032515;28;20462;-66
2023/03/21 04:46:11;;;;;;;4.80;2.77;;;8.90;98.00;;;;;;5032173;28;20455;-65
2023/03/21 04:48:38;;;;;;;2.90;2.30;;;9.00;98.00;;;;;;5032614;28;20520;-66
2023/03/21 04:51:05;;;;;;;2.80;2.10;;;8.90;98.00;;;;;;5032650;28;20489;-66
2023/03/21 04:53:32;;;;;;;5.53;2.50;;;8.80;98.00;;;;;;5014992;28;20460;-66
2023/03/21 04:56:00;;;;;;;3.43;2.20;;;8.70;98.00;;;;;;5032130;28;20480;-66
2023/03/21 04:58:27;;;;;;;3.57;2.20;;;8.80;98.00;;;;;;5031723;28;20489;-66
2023/03/21 05:00:56;;;;;;;4.57;2.23;;;8.80;98.00;;;;;;5032132;28;20483;-66
2023/03/21 05:03:23;;;;;;;2.83;2.13;;;8.80;98.00;;;;;;5031100;28;20451;-66
2023/03/21 05:05:50;;;;;;;4.90;2.70;;;8.70;98.00;;;;;;5031559;28;20456;-66
2023/03/21 05:08:17;;;;;;;3.50;2.10;;;8.60;98.00;;;;;;5032024;28;20463;-65
2023/03/21 05:10:44;;;;;;;3.50;2.63;;;8.60;98.00;;;;;;5031931;28;20458;-66
2023/03/21 05:13:12;;;;;;;4.00;2.10;;;8.60;98.00;;;;;;5031978;28;20970;-66
2023/03/21 05:15:39;;;;;;;3.93;2.00;;;8.60;98.00;;;;;;5014439;28;20451;-68
2023/03/21 05:18:10;;;;;;;3.33;2.10;;;8.70;98.00;;;;;;5031743;28;20454;-68
2023/03/21 05:20:41;;;;;;;2.83;2.27;;;8.80;98.00;;;;;;5031933;28;20541;-68
2023/03/21 05:23:09;;;;;;;2.70;2.10;;;8.80;98.00;;;;;;5031758;28;20524;-68
2023/03/21 05:25:37;;;;;;;5.90;2.07;;;8.80;98.00;;;;;;5014360;28;20535;-68
2023/03/21 05:28:05;;;;;;;7.60;2.97;;;8.90;98.00;;;;;;5031648;28;20472;-68
2023/03/21 05:30:32;;;;;;;4.60;2.13;;;8.90;98.00;;;;;;5031279;28;20459;-68
2023/03/21 05:33:00;;;;;;;4.67;2.03;;;8.90;98.00;;;;;;5031443;28;20474;-68
2023/03/21 05:35:28;;;;;;;2.93;1.87;;;8.90;98.00;;;;;;5031545;28;20455;-68
2023/03/21 05:37:56;;;;;;;3.80;2.47;;;8.90;98.00;;;;;;5013953;28;20466;-68
2023/03/21 05:40:23;;;;;;;3.13;2.10;;;9.00;98.00;;;;;;5031824;28;20467;-68
2023/03/21 05:42:52;;;;;;;2.40;1.67;;;9.10;98.00;;;;;;5013860;28;20999;-68
2023/03/21 05:45:19;;;;;;;4.53;2.27;;;9.10;98.00;;;;;;5031499;28;20457;-68
2023/03/21 05:47:46;;;;;;;3.00;1.80;;;9.00;98.00;;;;;;5031406;28;20462;-68
2023/03/21 05:50:14;;;;;;;2.63;2.03;;;8.90;98.00;;;;;;5031539;28;20525;-68
2023/03/21 05:52:45;;;;;;;4.47;2.53;;;8.90;98.00;;;;;;5031544;28;20550;-68
2023/03/21 05:55:13;;;;;;;2.20;1.87;;;8.80;98.00;;;;;;5031247;28;20843;-68
2023/03/21 05:57:41;;;;;;;2.67;2.27;;;8.80;98.00;;;;;;5031480;28;20461;-68
2023/03/21 06:00:10;;;;;;;3.20;2.20;;;8.90;98.00;;;;;;5031247;28;20516;-68
2023/03/21 06:02:38;;;;;;;5.00;2.40;;;9.00;98.00;;;;;;5031129;28;20928;-68
2023/03/21 06:05:06;;;;;;;4.60;2.30;;;9.00;98.00;;;;;;5031078;28;20490;-68
2023/03/21 06:07:34;;;;;;;5.90;2.63;;;9.00;98.00;;;;;;5031190;28;20463;-67
2023/03/21 06:10:03;;;;;;;2.47;1.97;;;9.00;98.00;;;;;;5031166;28;20452;-68
2023/03/21 06:12:30;;;;;;;3.73;2.30;;;9.00;98.00;;;;;;5031109;28;20489;-68
2023/03/21 06:14:58;;;;;;;3.33;2.03;;;9.10;98.00;;;;;;5032185;28;20478;-68
2023/03/21 06:17:25;;;;;;;5.00;2.37;;;9.20;98.00;;;;;;5035219;28;20529;-68
2023/03/21 06:19:53;;;;;;;4.10;2.07;;;9.40;98.00;;;;;;5035115;28;20465;-68
2023/03/21 06:22:20;;;;;;;5.60;2.63;;;9.50;98.00;;;;;;5035261;28;20489;-68
2023/03/21 06:24:47;;;;;;;2.20;1.80;;;9.60;98.00;;;;;;5035027;28;20463;-68
2023/03/21 06:27:15;;;;;;;3.63;2.60;;;9.70;98.00;;;;;;5035120;28;20462;-68
2023/03/21 06:29:44;;;;;;;2.73;2.20;;;9.70;98.00;;;;;;5035060;28;20500;-68
2023/03/21 06:32:12;;;;;;;3.57;2.30;;;9.80;98.00;;;;;;5035001;28;21250;-68
2023/03/21 06:34:39;;;;;;;2.70;1.97;;;9.80;98.00;;;;;;5034942;28;20459;-68
2023/03/21 06:37:06;;;;;;;4.23;2.30;;;9.70;98.00;;;;;;5034775;28;20462;-68
2023/03/21 06:39:33;;;;;;;4.83;2.63;;;9.70;98.00;;;;;;5017435;28;20458;-67
2023/03/21 06:42:00;;;;;;;5.57;2.60;;;9.60;98.00;;;;;;5017124;28;20509;-68
2023/03/21 06:44:29;;;;;;;2.70;1.97;;;9.60;98.00;;;;;;5034852;28;20460;-68
2023/03/21 06:46:56;;;;;;;3.13;2.23;;;9.60;98.00;;;;;;5034581;28;20458;-68
2023/03/21 06:49:24;;;;;;;3.63;2.40;;;9.80;98.00;;;;;;5034814;28;20456;-68
2023/03/21 06:51:51;;;;;;;7.00;2.80;;;9.80;98.00;;;;;;5034745;28;20449;-68
2023/03/21 06:54:19;;;;;;;4.13;2.77;;;9.90;98.00;;;;;;5034531;28;20453;-68
2023/03/21 06:56:46;;;;;;;3.43;2.17;;;9.90;98.00;;;;;;5034069;28;20465;-68
2023/03/21 06:59:14;;;;;;;5.20;2.30;;;9.90;98.00;;;;;;5034441;28;20516;-68
2023/03/21 07:01:43;;;;;;;5.17;2.73;;;10.00;98.00;;;;;;5034281;28;20480;-63
2023/03/21 07:04:10;;;;;;;3.23;2.40;;;10.10;98.00;;;;;;5034509;28;20457;-63
2023/03/21 07:06:39;;;;;;;4.17;2.53;;;10.10;98.00;;;;;;5034265;28;21007;-63
2023/03/21 07:09:07;;;;;;;5.10;2.67;;;10.10;98.00;;;;;;5034211;28;20489;-62
2023/03/21 07:11:36;;;;;;;4.70;2.70;;;10.10;98.00;;;;;;5034429;28;20454;-63
2023/03/21 07:14:03;;;;;;;5.20;2.37;;;10.40;98.00;;;;;;5033768;28;20462;-62
2023/03/21 07:16:33;;;;;;;6.10;2.37;;;10.50;98.00;;;;;;5034104;28;20458;-62
2023/03/21 07:19:02;;;;;;;5.63;3.03;;;10.60;98.00;;;;;;5017009;28;20861;-63
2023/03/21 07:21:29;;;;;;;7.07;3.43;;;10.70;98.00;;;;;;5033893;28;20491;-62
2023/03/21 07:23:56;;;;;;;4.60;2.40;;;10.80;98.00;;;;;;5034047;28;20875;-62
2023/03/21 07:26:23;;;;;;;4.87;2.60;;;10.90;98.00;;;;;;5015356;28;20860;-62
2023/03/21 07:28:50;;;;;;;6.63;3.17;;;11.00;98.00;;;;;;5033896;28;20458;-62
2023/03/21 07:31:18;;;;;;;3.30;2.47;;;11.10;98.00;;;;;;5016170;28;20508;-62
2023/03/21 07:33:45;;;;;;;6.00;2.93;;;11.10;98.00;;;;;;5033795;28;20476;-62
2023/03/21 07:36:16;;;;;;;3.80;2.90;;;11.00;98.00;;;;;;5033823;28;20533;-62
2023/03/21 07:38:44;;;;;;;5.03;2.80;;;11.10;98.00;;;;;;5033724;28;20461;-63
2023/03/21 07:41:12;;;;;;;4.57;2.30;;;11.10;98.00;;;;;;5033632;28;20460;-63
2023/03/21 07:43:39;;;;;;;4.83;2.67;;;11.00;98.00;;;;;;5033834;28;21093;-63
2023/03/21 07:46:06;;;;;;;5.20;3.00;;;11.00;98.00;;;;;;5033523;28;20452;-62
2023/03/21 07:48:33;;;;;;;3.60;2.63;;;10.90;98.00;;;;;;5033836;28;20465;-62
2023/03/21 07:51:01;;;;;;;4.60;2.57;;;11.00;98.00;;;;;;5033716;28;20870;-63
2023/03/21 07:53:29;;;;;;;4.37;2.73;;;11.10;98.00;;;;;;5033442;28;20462;-63
2023/03/21 07:55:59;;;;;;;3.20;2.37;;;11.20;98.00;;;;;;5033275;28;20474;-62
2023/03/21 07:58:27;;;;;;;5.57;3.10;;;11.40;98.00;;;;;;5033563;28;20458;-63
2023/03/21 08:00:55;;;;;;;6.80;2.90;;;11.40;98.00;;;;;;5033225;28;20454;-62
2023/03/21 08:03:25;;;;;;;4.10;2.60;;;11.70;98.00;;;;;;5033402;28;20566;-62
2023/03/21 08:05:52;;;;;;;5.53;3.07;;;12.00;98.00;;;;;;5032474;28;20491;-62
2023/03/21 08:08:19;;;;;;;5.90;3.13;;;12.10;98.00;;;;;;5033383;28;20459;-62
2023/03/21 08:10:48;;;;;;;5.73;3.00;;;12.10;98.00;;;;;;5032732;28;20495;-62
2023/03/21 08:13:15;;;;;;;6.10;3.00;;;12.20;98.00;;;;;;5033297;28;20451;-62
2023/03/21 08:15:42;;;;;;;6.33;3.60;;;12.40;98.00;;;;;;5033071;28;20454;-62
2023/03/21 08:18:11;;;;;;;4.50;2.90;;;12.40;98.00;;;;;;5032964;28;20456;-62
2023/03/21 08:20:40;;;;;;;7.23;2.43;;;12.60;98.00;;;;;;5035205;28;20535;-63
2023/03/21 08:23:07;;;;;;;4.83;3.00;;;12.60;98.00;;;;;;5016841;28;20576;-63
2023/03/21 08:25:34;;;;;;;6.03;3.27;;;12.60;98.00;;;;;;5031996;28;20453;-63
2023/03/21 08:28:03;;;;;;;4.27;2.80;;;12.80;98.00;;;;;;5031302;28;20977;-62
2023/03/21 08:30:31;;;;;;;5.50;3.20;;;12.90;98.00;;;;;;5032352;28;20740;-63
2023/03/21 08:33:00;;;;;;;4.43;2.67;;;13.20;98.00;;;;;;5032505;28;20459;-62
2023/03/21 08:35:30;;;;;;;5.57;2.97;;;13.30;98.00;;;;;;5030721;28;20653;-67
2023/03/21 08:37:57;;;;;;;3.87;2.37;;;13.70;98.00;;;;;;5031886;28;20502;-61
2023/03/21 08:40:25;;;;;;;5.43;2.53;;;14.10;98.00;;;;;;5031310;28;20881;-63
2023/03/21 08:42:52;;;;;;;3.77;2.53;;;14.20;98.00;;;;;;5032391;28;20597;-63
2023/03/21 08:45:21;;;;;;;3.93;2.23;;;14.30;98.00;;;;;;5030203;28;20466;-63
2023/03/21 08:47:49;;;;;;;4.10;2.43;;;14.30;98.00;;;;;;5032556;28;20461;-63
2023/03/21 08:50:18;;;;;;;4.07;2.60;;;14.40;98.00;;;;;;5029853;28;20465;-63
2023/03/21 08:52:45;;;;;;;2.90;2.33;;;14.30;98.00;;;;;;5031633;28;20469;-63
2023/03/21 08:55:13;;;;;;;2.90;1.90;;;14.20;98.00;;;;;;5027568;28;20474;-63
2023/03/21 08:57:41;;;;;;;2.40;2.10;;;14.20;98.00;;;;;;5026945;28;20465;-63
2023/03/21 09:00:13;;;;;;;4.73;2.63;;;14.30;98.00;;;;;;5026500;28;20480;-63
2023/03/21 09:02:43;;;;;;;3.77;2.53;;;14.30;98.00;;;;;;5029530;28;20495;-63
2023/03/21 09:05:12;;;;;;;3.10;1.87;;;14.40;98.00;;;;;;5032156;28;20462;-64
2023/03/21 09:07:40;;;;;;;3.60;2.40;;;14.40;98.00;;;;;;5031923;28;20532;-63
2023/03/21 09:10:12;;;;;;;3.97;2.30;;;14.50;98.00;;;;;;5030562;28;20838;-63
2023/03/21 09:12:39;;;;;;;3.10;2.00;;;14.70;98.00;;;;;;5031915;28;20800;-63
2023/03/21 09:15:08;;;;;;;2.17;1.83;;;14.80;98.00;;;;;;5031643;28;20990;-63
2023/03/21 09:17:40;;;;;;;3.10;2.00;;;14.90;98.00;;;;;;5031844;28;20485;-63
2023/03/21 09:20:17;;;;;;;4.47;2.20;;;14.90;98.00;;;;;;5031509;28;20473;-63
2023/03/21 09:22:45;;;;;;;3.43;2.40;;;15.00;98.00;;;;;;5031713;28;20571;-64
2023/03/21 09:25:12;;;;;;;3.67;2.23;;;15.00;98.00;;;;;;5031286;28;20556;-63
2023/03/21 09:27:41;;;;;;;3.53;2.10;;;15.10;98.00;;;;;;5031611;28;20880;-63
2023/03/21 09:30:09;;;;;;;2.20;1.97;;;15.10;98.00;;;;;;5031448;28;20543;-63
2023/03/21 09:32:37;;;;;;;4.30;3.07;;;15.30;98.00;;;;;;5030550;28;20549;-64
2023/03/21 09:35:06;;;;;;;3.83;2.10;;;15.50;98.00;;;;;;5031114;28;20495;-64
2023/03/21 09:37:37;;;;;;;3.00;2.03;;;15.70;98.00;;;;;;5030333;28;20495;-63
2023/03/21 09:40:07;;;;;;;2.93;1.97;;;15.90;98.00;;;;;;5030091;28;20463;-64
2023/03/21 09:42:40;;;;;;;2.80;1.83;;;15.90;98.00;;;;;;5031391;28;20837;-63
2023/03/21 09:45:16;;;;;;;4.00;1.87;;;16.10;98.00;;;;;;5031250;28;20512;-63
2023/03/21 09:47:52;;;;;;;2.10;1.80;;;16.30;97.00;;;;;;5031417;28;21051;-63
2023/03/21 09:50:26;;;;;;;10.63;3.00;;;16.50;97.30;;;;;;5031134;28;20537;-63
2023/03/21 09:52:58;;;;;;;3.87;2.10;;;16.70;95.70;;;;;;5031349;28;20455;-64
2023/03/21 09:55:29;;;;;;;2.50;1.93;;;16.90;95.70;;;;;;5031033;28;20973;-64
2023/03/21 09:58:05;;;;;;;2.60;1.90;;;17.10;96.30;;;;;;5031141;28;20463;-63
2023/03/21 10:00:37;;;;;;;3.10;2.00;;;17.10;95.00;;;;;;5030787;28;20454;-63
2023/03/21 10:03:09;;;;;;;2.40;1.90;;;17.10;94.60;;;;;;5030261;28;20521;-64
2023/03/21 10:05:43;;;;;;;3.40;2.20;;;17.30;93.40;;;;;;5013850;28;21095;-64
2023/03/21 10:08:18;;;;;;;3.10;2.03;;;17.30;94.20;;;;;;5030910;28;20519;-63
2023/03/21 10:10:52;;;;;;;2.87;1.90;;;17.40;92.60;;;;;;5030894;28;20798;-63
2023/03/21 10:13:22;;;;;;;1.93;1.50;;;17.50;92.70;;;;;;5031065;28;20458;-64
2023/03/21 10:15:50;;;;;;;2.93;1.80;;;17.70;94.70;;;;;;5030840;28;20446;-64
2023/03/21 10:18:22;;;;;;;3.43;2.00;;;17.80;92.30;;;;;;5013412;28;20877;-63
2023/03/21 10:20:51;;;;;;;3.80;2.20;;;17.80;92.80;;;;;;5030953;28;20486;-64
2023/03/21 10:23:22;;;;;;;4.00;2.07;;;17.70;91.30;;;;;;5030714;28;20482;-64
2023/03/21 10:25:51;;;;;;;2.80;1.80;;;17.60;91.80;;;;;;5030598;28;20513;-64
2023/03/21 10:28:21;;;;;;;2.20;1.60;;;17.70;90.80;;;;;;5030809;28;20469;-64
2023/03/21 10:30:52;;;;;;;2.37;1.60;;;17.60;91.20;;;;;;5030887;28;20945;-64
2023/03/21 10:33:23;;;;;;;1.83;1.57;;;17.70;90.80;;;;;;5030930;28;20451;-64
2023/03/21 10:35:53;;;;;;;2.13;1.53;;;17.90;91.20;;;;;;5030629;28;20447;-64
2023/03/21 10:38:25;;;;;;;2.17;1.70;;;18.00;89.30;;;;;;5030851;28;20458;-64
2023/03/21 10:40:53;;;;;;;1.83;1.60;;;18.20;90.00;;;;;;5030710;28;20549;-64
2023/03/21 10:43:39;;;;;;;2.17;1.70;;;18.20;89.20;;;;;;5030878;28;21004;-64
2023/03/21 10:46:10;;;;;;;1.73;1.70;;;18.20;88.70;;;;;;5030677;28;20516;-64
2023/03/21 10:48:40;;;;;;;2.57;1.90;;;18.00;89.30;;;;;;5031058;28;20462;-64
2023/03/21 10:51:09;;;;;;;1.50;1.40;;;17.90;90.80;;;;;;5030767;28;20463;-61
2023/03/21 10:53:40;;;;;;;2.30;1.57;;;17.90;88.30;;;;;;5030921;28;20458;-63
2023/03/21 10:56:11;;;;;;;2.27;1.70;;;18.10;88.80;;;;;;5030495;28;21091;-64
2023/03/21 10:58:43;;;;;;;1.70;1.40;;;18.30;87.80;;;;;;5030528;28;20462;-65
2023/03/21 11:01:14;;;;;;;1.80;1.60;;;18.50;86.70;;;;;;5032519;28;20547;-61
2023/03/21 11:03:45;;;;;;;1.87;1.50;;;18.70;87.00;;;;;;5034746;28;20494;-61
2023/03/21 11:06:16;;;;;;;1.80;1.50;;;19.10;86.20;;;;;;5034709;28;20473;-61
2023/03/21 11:08:48;;;;;;;2.20;1.70;;;19.10;84.90;;;;;;5034673;28;21138;-61
2023/03/21 11:11:22;;;;;;;2.50;1.80;;;19.40;85.70;;;;;;5034663;28;20462;-61
2023/03/21 11:13:57;;;;;;;1.83;1.43;;;19.70;83.00;;;;;;5034836;28;20478;-61
2023/03/21 11:16:33;;;;;;;2.80;1.70;;;20.10;82.90;;;;;;5034847;28;20545;-61
2023/03/21 11:19:04;;;;;;;1.70;1.60;;;20.30;80.10;;;;;;5034813;28;20891;-61
2023/03/21 11:21:36;;;;;;;2.23;1.60;;;20.20;82.40;;;;;;5034712;28;20779;-61
2023/03/21 11:24:06;;;;;;;3.60;1.70;;;20.20;81.20;;;;;;5034244;28;20486;-61
2023/03/21 11:26:36;;;;;;;3.77;1.60;;;20.10;81.20;;;;;;5032712;28;20497;-61
2023/03/21 11:29:20;;;;;;;2.83;1.90;;;19.80;83.80;;;;;;5033769;28;20454;-61
2023/03/21 11:37:03;;;;;;;2.23;1.80;;;19.20;83.50;;;;;;5032322;28;20482;-64
2023/03/21 11:39:46;;;;;;;2.60;1.77;;;19.20;83.10;;;;;;5034009;28;20557;-63
2023/03/21 11:42:27;;;;;;;2.00;1.60;;;19.00;82.10;;;;;;5033778;28;20874;-65
2023/03/21 11:45:11;;;;;;;3.13;1.80;;;19.00;83.30;;;;;;5033521;28;20482;-64
2023/03/21 11:47:38;;;;;;;1.67;1.40;;;18.70;84.20;;;;;;5033607;28;20554;-65
2023/03/21 11:50:18;;;;;;;1.63;1.50;;;18.60;82.40;;;;;;5033463;28;20981;-65
2023/03/21 11:52:58;;;;;;;3.27;1.70;;;18.50;83.70;;;;;;5033391;28;20454;-66
2023/03/21 11:55:40;;;;;;;2.30;1.70;;;18.50;83.70;;;;;;5033340;28;20466;-65
2023/03/21 11:58:32;;;;;;;1.90;1.53;;;18.50;83.30;;;;;;5033272;28;20466;-64
2023/03/21 12:01:08;;;;;;;3.00;1.60;;;18.30;85.00;;;;;;5033088;28;20816;-64
2023/03/21 12:04:02;;;;;;;1.87;1.63;;;18.10;85.10;;;;;;5033098;28;21026;-65
2023/03/21 12:06:36;;;;;;;3.37;1.50;;;18.00;85.40;;;;;;5033176;28;20463;-64
2023/03/21 12:09:27;;;;;;;2.33;1.50;;;18.00;85.90;;;;;;5032914;28;20552;-63
2023/03/21 12:12:16;;;;;;;2.57;1.73;;;18.00;85.00;;;;;;5032937;28;20459;-64
2023/03/21 12:14:56;;;;;;;2.03;1.40;;;18.00;84.60;;;;;;5033846;28;20466;-63
2023/03/21 12:17:33;;;;;;;2.37;1.77;;;17.90;87.60;;;;;;5033879;28;20814;-65
2023/03/21 12:20:21;;;;;;;2.43;1.50;;;17.70;88.00;;;;;;5033721;28;20469;-65
2023/03/21 12:23:01;;;;;;;2.07;1.60;;;17.60;87.40;;;;;;5033688;28;20459;-65
2023/03/21 12:25:33;;;;;;;3.77;1.83;;;17.50;87.20;;;;;;5031992;28;20474;-63
2023/03/21 12:28:12;;;;;;;3.00;1.90;;;17.70;87.90;;;;;;5033494;28;20455;-65
2023/03/21 12:30:51;;;;;;;1.60;1.40;;;17.90;89.20;;;;;;5033528;28;20481;-64
2023/03/21 12:33:47;;;;;;;1.70;1.40;;;17.90;89.20;;;;;;5033629;28;20481;-63
2023/03/21 12:36:36;;;;;;;3.67;1.77;;;18.00;88.90;;;;;;5032003;28;20502;-64
2023/03/21 12:39:15;;;;;;;2.33;1.70;;;18.00;88.20;;;;;;5033274;28;20486;-66
2023/03/21 12:41:45;;;;;;;2.70;1.80;;;18.00;88.10;;;;;;5031675;28;20466;-63
2023/03/21 12:44:17;;;;;;;1.70;1.70;;;17.90;89.10;;;;;;5033230;28;20522;-64
2023/03/21 12:46:49;;;;;;;2.13;1.63;;;17.90;89.90;;;;;;5031720;28;20533;-65
2023/03/21 12:49:25;;;;;;;2.43;1.80;;;17.90;88.90;;;;;;5032969;28;20944;-64
2023/03/21 12:51:59;;;;;;;1.87;1.60;;;17.90;87.90;;;;;;5032824;28;20450;-64
2023/03/21 12:54:33;;;;;;;1.40;1.40;;;17.80;88.50;;;;;;5032968;28;20511;-65
2023/03/21 12:57:04;;;;;;;1.90;1.50;;;17.80;89.50;;;;;;5032587;28;20451;-65
2023/03/21 12:59:37;;;;;;;1.70;1.50;;;17.80;90.80;;;;;;5032805;28;20524;-65
2023/03/21 13:02:17;;;;;;;2.93;1.90;;;17.70;89.20;;;;;;5032747;28;20794;-65
2023/03/21 13:04:52;;;;;;;1.60;1.50;;;17.60;89.90;;;;;;5032850;28;20498;-65
2023/03/21 13:07:21;;;;;;;1.63;1.57;;;17.70;91.10;;;;;;5032889;28;20528;-65
2023/03/21 13:09:50;;;;;;;1.87;1.63;;;17.80;89.90;;;;;;5032744;28;20561;-66
2023/03/21 13:12:35;;;;;;;3.03;1.83;;;17.90;88.90;;;;;;5031324;28;20475;-66
2023/03/21 13:15:33;;;;;;;1.97;1.50;;;17.90;89.30;;;;;;5032737;28;20463;-65
2023/03/21 13:18:06;;;;;;;1.60;1.50;;;17.90;88.00;;;;;;5032547;28;20470;-66
2023/03/21 13:20:42;;;;;;;1.80;1.40;;;17.80;88.60;;;;;;5032559;28;20520;-66
2023/03/21 13:23:12;;;;;;;2.90;1.80;;;17.80;88.20;;;;;;5032474;28;20451;-67